sensor_id;sensor_type;location;lat;lon;timestamp;pressure;altitude;pressure_sealevel;temperature;humidity
57234;BME280;43090;52.604;13.318;2023-04-03T00:02:25;102510.31;;;0.70;73.46
57234;BME280;43090;52.604;13.318;2023-04-03T00:04:52;102519.09;;;0.92;73.25
57234;BME280;43090;52.604;13.318;2023-04-03T00:07:18;102476.97;;;0.58;73.59
57234;BME280;43090;52.604;13.318;2023-04-03T00:09:45;102526.09;;;1.09;73.42
57234;BME280;43090;52.604;13.318;2023-04-03T00:12:11;102516.47;;;0.86;73.81
57234;BME280;43090;52.604;13.318;2023-04-03T00:14:38;102505.03;;;0.86;74.40
57234;BME280;43090;52.604;13.318;2023-04-03T00:17:04;102505.00;;;0.96;73.07
57234;BME280;43090;52.604;13.318;2023-04-03T00:19:31;102496.22;;;0.97;74.29
57234;BME280;43090;52.604;13.318;2023-04-03T00:21:58;102519.03;;;1.09;73.80
57234;BME280;43090;52.604;13.318;2023-04-03T00:24:24;102519.03;;;1.09;75.58
57234;BME280;43090;52.604;13.318;2023-04-03T00:26:51;102523.47;;;1.07;74.71
57234;BME280;43090;52.604;13.318;2023-04-03T00:29:17;102492.75;;;0.86;74.51
57234;BME280;43090;52.604;13.318;2023-04-03T00:31:43;102510.28;;;0.96;74.33
57234;BME280;43090;52.604;13.318;2023-04-03T00:34:10;102503.22;;;1.02;74.23
57234;BME280;43090;52.604;13.318;2023-04-03T00:36:37;102517.25;;;1.16;75.51
57234;BME280;43090;52.604;13.318;2023-04-03T00:39:03;102526.94;;;1.15;76.04
57234;BME280;43090;52.604;13.318;2023-04-03T00:41:30;102512.03;;;0.91;75.17
57234;BME280;43090;52.604;13.318;2023-04-03T00:43:56;102505.94;;;0.86;74.70
57234;BME280;43090;52.604;13.318;2023-04-03T00:46:23;102502.44;;;0.75;75.99
57234;BME280;43090;52.604;13.318;2023-04-03T00:48:49;102513.88;;;0.77;73.58
57234;BME280;43090;52.604;13.318;2023-04-03T00:51:20;102524.38;;;0.83;73.44
57234;BME280;43090;52.604;13.318;2023-04-03T00:53:54;102496.25;;;0.85;75.06
57234;BME280;43090;52.604;13.318;2023-04-03T00:56:23;102521.69;;;1.03;74.72
57234;BME280;43090;52.604;13.318;2023-04-03T00:59:04;102531.34;;;1.12;74.26
57234;BME280;43090;52.604;13.318;2023-04-03T01:01:32;102515.59;;;0.81;72.71
57234;BME280;43090;52.604;13.318;2023-04-03T01:03:59;102507.66;;;0.92;73.49
57234;BME280;43090;52.604;13.318;2023-04-03T01:06:31;102525.25;;;0.73;73.09
57234;BME280;43090;52.604;13.318;2023-04-03T01:08:59;102512.94;;;0.87;72.78
57234;BME280;43090;52.604;13.318;2023-04-03T01:11:26;102531.34;;;1.12;75.09
57234;BME280;43090;52.604;13.318;2023-04-03T01:13:53;102534.06;;;0.90;73.64
57234;BME280;43090;52.604;13.318;2023-04-03T01:16:19;102527.94;;;0.66;75.13
57234;BME280;43090;52.604;13.318;2023-04-03T01:18:46;102539.31;;;0.98;74.58
57234;BME280;43090;52.604;13.318;2023-04-03T01:24:36;102539.34;;;0.69;74.82
57234;BME280;43090;52.604;13.318;2023-04-03T01:27:06;102516.50;;;0.72;75.59
57234;BME280;43090;52.604;13.318;2023-04-03T01:29:33;102539.31;;;0.93;75.90
57234;BME280;43090;52.604;13.318;2023-04-03T01:32:00;102536.66;;;0.95;77.54
57234;BME280;43090;52.604;13.318;2023-04-03T01:34:28;102533.16;;;0.82;77.96
57234;BME280;43090;52.604;13.318;2023-04-03T01:51:02;102540.16;;;-0.07;85.29
57234;BME280;43090;52.604;13.318;2023-04-03T01:53:28;102559.56;;;0.29;84.42
57234;BME280;43090;52.604;13.318;2023-04-03T01:55:54;102546.38;;;0.19;83.27
57234;BME280;43090;52.604;13.318;2023-04-03T01:58:21;102543.75;;;0.32;82.31
57234;BME280;43090;52.604;13.318;2023-04-03T02:00:47;102541.13;;;0.49;81.43
57234;BME280;43090;52.604;13.318;2023-04-03T02:03:14;102538.44;;;0.73;81.01
57234;BME280;43090;52.604;13.318;2023-04-03T02:05:41;102539.34;;;0.52;80.53
57234;BME280;43090;52.604;13.318;2023-04-03T02:08:07;102540.25;;;0.68;80.97
57234;BME280;43090;52.604;13.318;2023-04-03T02:10:34;102556.00;;;0.92;80.92
57234;BME280;43090;52.604;13.318;2023-04-03T02:13:01;102560.44;;;0.64;81.31
57234;BME280;43090;52.604;13.318;2023-04-03T02:15:27;102554.28;;;0.73;81.44
57234;BME280;43090;52.604;13.318;2023-04-03T02:17:54;102538.50;;;0.37;81.73
57234;BME280;43090;52.604;13.318;2023-04-03T02:20:21;102556.06;;;0.43;81.21
57234;BME280;43090;52.604;13.318;2023-04-03T02:22:48;102573.63;;;0.53;80.71
57234;BME280;43090;52.604;13.318;2023-04-03T02:25:14;102550.78;;;0.49;80.74
57234;BME280;43090;52.604;13.318;2023-04-03T02:27:41;102557.78;;;0.50;81.71
57234;BME280;43090;52.604;13.318;2023-04-03T02:30:07;102559.56;;;0.53;81.63
57234;BME280;43090;52.604;13.318;2023-04-03T02:32:36;102565.72;;;0.64;81.46
57234;BME280;43090;52.604;13.318;2023-04-03T02:35:03;102568.34;;;0.58;81.40
57234;BME280;43090;52.604;13.318;2023-04-03T02:37:30;102554.28;;;0.36;81.52
57234;BME280;43090;52.604;13.318;2023-04-03T02:39:56;102571.88;;;0.52;81.04
57234;BME280;43090;52.604;13.318;2023-04-03T02:42:23;102558.66;;;0.29;80.85
57234;BME280;43090;52.604;13.318;2023-04-03T02:44:49;102567.47;;;0.53;82.24
57234;BME280;43090;52.604;13.318;2023-04-03T02:47:15;102571.84;;;0.64;81.67
57234;BME280;43090;52.604;13.318;2023-04-03T02:49:42;102582.38;;;0.30;82.04
57234;BME280;43090;52.604;13.318;2023-04-03T02:52:12;102578.88;;;0.38;82.33
57234;BME280;43090;52.604;13.318;2023-04-03T02:54:39;102587.69;;;0.68;81.38
57234;BME280;43090;52.604;13.318;2023-04-03T02:57:06;102571.84;;;0.55;80.81
57234;BME280;43090;52.604;13.318;2023-04-03T02:59:38;102602.63;;;0.58;80.97
57234;BME280;43090;52.604;13.318;2023-04-03T03:02:08;102599.09;;;0.63;81.43
57234;BME280;43090;52.604;13.318;2023-04-03T03:04:35;102593.84;;;0.46;81.63
57234;BME280;43090;52.604;13.318;2023-04-03T03:07:02;102600.88;;;0.61;81.62
57234;BME280;43090;52.604;13.318;2023-04-03T03:09:29;102604.34;;;0.31;81.73
57234;BME280;43090;52.604;13.318;2023-04-03T03:11:56;102595.56;;;0.38;81.69
57234;BME280;43090;52.604;13.318;2023-04-03T03:14:23;102599.94;;;0.42;81.93
57234;BME280;43090;52.604;13.318;2023-04-03T03:16:50;102572.72;;;0.42;81.51
57234;BME280;43090;52.604;13.318;2023-04-03T03:19:16;102580.66;;;0.59;81.63
57234;BME280;43090;52.604;13.318;2023-04-03T03:21:43;102567.47;;;0.53;80.74
57234;BME280;43090;52.604;13.318;2023-04-03T03:24:09;102562.19;;;0.42;81.71
57234;BME280;43090;52.604;13.318;2023-04-03T03:26:35;102575.38;;;0.48;81.01
57234;BME280;43090;52.604;13.318;2023-04-03T03:29:02;102592.06;;;0.48;81.66
57234;BME280;43090;52.604;13.318;2023-04-03T03:31:28;102595.59;;;0.43;82.13
57234;BME280;43090;52.604;13.318;2023-04-03T03:33:55;102594.69;;;0.27;82.16
57234;BME280;43090;52.604;13.318;2023-04-03T03:36:21;102597.31;;;0.38;81.33
57234;BME280;43090;52.604;13.318;2023-04-03T03:38:48;102618.44;;;0.45;81.47
57234;BME280;43090;52.604;13.318;2023-04-03T03:41:14;102599.94;;;0.31;82.33
57234;BME280;43090;52.604;13.318;2023-04-03T03:43:41;102610.50;;;0.35;82.54
57234;BME280;43090;52.604;13.318;2023-04-03T03:46:07;102615.78;;;0.38;82.42
57234;BME280;43090;52.604;13.318;2023-04-03T03:48:34;102582.38;;;0.18;83.44
57234;BME280;43090;52.604;13.318;2023-04-03T03:51:00;102609.63;;;0.31;83.53
57234;BME280;43090;52.604;13.318;2023-04-03T03:53:27;102618.41;;;0.25;83.65
57234;BME280;43090;52.604;13.318;2023-04-03T03:55:53;102599.06;;;0.20;83.56
57234;BME280;43090;52.604;13.318;2023-04-03T03:58:20;102611.34;;;0.29;82.89
57234;BME280;43090;52.604;13.318;2023-04-03T04:00:46;102591.97;;;-0.07;83.66
57234;BME280;43090;52.604;13.318;2023-04-03T04:03:13;102620.97;;;0.14;82.88
57234;BME280;43090;52.604;13.318;2023-04-03T04:05:39;102573.53;;;-0.12;84.05
57234;BME280;43090;52.604;13.318;2023-04-03T04:08:06;102581.47;;;0.08;83.24
57234;BME280;43090;52.604;13.318;2023-04-03T04:10:33;102571.81;;;0.09;83.09
57234;BME280;43090;52.604;13.318;2023-04-03T04:13:00;102591.16;;;0.25;82.68
57234;BME280;43090;52.604;13.318;2023-04-03T04:15:26;102613.13;;;0.41;82.62
57234;BME280;43090;52.604;13.318;2023-04-03T04:17:53;102603.44;;;0.21;83.79
57234;BME280;43090;52.604;13.318;2023-04-03T04:20:20;102608.75;;;0.33;82.87
57234;BME280;43090;52.604;13.318;2023-04-03T04:22:46;102589.34;;;0.02;83.77
57234;BME280;43090;52.604;13.318;2023-04-03T04:25:13;102608.66;;;-0.05;83.59
57234;BME280;43090;52.604;13.318;2023-04-03T04:27:39;102608.72;;;0.18;84.02
57234;BME280;43090;52.604;13.318;2023-04-03T04:30:06;102599.84;;;-0.04;84.65
57234;BME280;43090;52.604;13.318;2023-04-03T04:32:33;102613.06;;;0.05;83.48
57234;BME280;43090;52.604;13.318;2023-04-03T04:34:59;102616.63;;;0.26;83.63
57234;BME280;43090;52.604;13.318;2023-04-03T04:37:26;102597.19;;;-0.20;84.79
57234;BME280;43090;52.604;13.318;2023-04-03T04:39:53;102625.31;;;-0.03;85.62
57234;BME280;43090;52.604;13.318;2023-04-03T04:42:20;102617.34;;;-0.26;86.53
57234;BME280;43090;52.604;13.318;2023-04-03T04:44:46;102612.16;;;-0.06;86.08
57234;BME280;43090;52.604;13.318;2023-04-03T04:47:13;102622.72;;;0.03;85.92
57234;BME280;43090;52.604;13.318;2023-04-03T04:49:39;102627.16;;;0.15;84.71
57234;BME280;43090;52.604;13.318;2023-04-03T04:52:05;102621.03;;;0.25;84.38
57234;BME280;43090;52.604;13.318;2023-04-03T04:54:32;102638.56;;;0.23;84.96
57234;BME280;43090;52.604;13.318;2023-04-03T04:56:59;102625.28;;;-0.09;85.73
57234;BME280;43090;52.604;13.318;2023-04-03T04:59:25;102642.09;;;0.16;84.65
57234;BME280;43090;52.604;13.318;2023-04-03T05:01:52;102620.16;;;0.20;84.72
57234;BME280;43090;52.604;13.318;2023-04-03T05:04:18;102643.84;;;0.19;84.88
57234;BME280;43090;52.604;13.318;2023-04-03T05:06:45;102608.69;;;0.09;84.57
57234;BME280;43090;52.604;13.318;2023-04-03T05:09:12;102624.50;;;0.18;84.50
57234;BME280;43090;52.604;13.318;2023-04-03T05:11:38;102623.63;;;0.14;84.30
57234;BME280;43090;52.604;13.318;2023-04-03T05:14:05;102623.63;;;0.13;84.70
57234;BME280;43090;52.604;13.318;2023-04-03T05:16:33;102637.69;;;0.13;85.17
57234;BME280;43090;52.604;13.318;2023-04-03T05:19:00;102644.72;;;0.22;84.68
57234;BME280;43090;52.604;13.318;2023-04-03T05:21:26;102643.88;;;0.45;85.50
57234;BME280;43090;52.604;13.318;2023-04-03T05:23:55;102639.50;;;0.50;83.67
57234;BME280;43090;52.604;13.318;2023-04-03T05:26:21;102642.16;;;0.44;83.81
57234;BME280;43090;52.604;13.318;2023-04-03T05:28:48;102625.47;;;0.56;83.48
57234;BME280;43090;52.604;13.318;2023-04-03T05:31:14;102620.19;;;0.53;83.72
57234;BME280;43090;52.604;13.318;2023-04-03T05:33:41;102639.53;;;0.70;82.83
57234;BME280;43090;52.604;13.318;2023-04-03T05:36:08;102657.09;;;0.80;82.15
57234;BME280;43090;52.604;13.318;2023-04-03T05:38:35;102645.63;;;0.37;83.04
57234;BME280;43090;52.604;13.318;2023-04-03T05:41:01;102661.41;;;0.24;82.06
57234;BME280;43090;52.604;13.318;2023-04-03T05:43:28;102646.47;;;0.17;82.99
57234;BME280;43090;52.604;13.318;2023-04-03T05:45:54;102654.44;;;0.40;81.74
57234;BME280;43090;52.604;13.318;2023-04-03T05:48:21;102661.50;;;0.74;82.02
57234;BME280;43090;52.604;13.318;2023-04-03T05:50:47;102679.88;;;0.35;81.96
57234;BME280;43090;52.604;13.318;2023-04-03T05:53:24;102670.28;;;0.70;81.45
57234;BME280;43090;52.604;13.318;2023-04-03T05:55:52;102645.63;;;0.24;80.63
57234;BME280;43090;52.604;13.318;2023-04-03T05:58:22;102661.47;;;0.52;80.63
57234;BME280;43090;52.604;13.318;2023-04-03T06:00:49;102646.53;;;0.53;79.77
57234;BME280;43090;52.604;13.318;2023-04-03T06:03:15;102643.06;;;0.60;78.41
57234;BME280;43090;52.604;13.318;2023-04-03T06:05:43;102627.22;;;0.66;79.30
57234;BME280;43090;52.604;13.318;2023-04-03T06:08:12;102680.88;;;1.02;77.40
57234;BME280;43090;52.604;13.318;2023-04-03T06:10:39;102654.47;;;0.70;78.25
57234;BME280;43090;52.604;13.318;2023-04-03T06:13:06;102682.63;;;0.91;77.69
57234;BME280;43090;52.604;13.318;2023-04-03T06:15:33;102664.16;;;0.95;77.06
57234;BME280;43090;52.604;13.318;2023-04-03T06:18:00;102681.72;;;1.12;80.24
57234;BME280;43090;52.604;13.318;2023-04-03T06:20:27;102674.66;;;1.43;77.79
57234;BME280;43090;52.604;13.318;2023-04-03T06:22:54;102669.41;;;1.20;76.95
57234;BME280;43090;52.604;13.318;2023-04-03T06:25:20;102686.13;;;1.25;75.83
57234;BME280;43090;52.604;13.318;2023-04-03T06:27:47;102670.31;;;1.07;76.11
57234;BME280;43090;52.604;13.318;2023-04-03T06:30:13;102661.53;;;0.86;76.08
57234;BME280;43090;52.604;13.318;2023-04-03T06:32:40;102663.28;;;1.12;76.57
57234;BME280;43090;52.604;13.318;2023-04-03T06:35:07;102694.91;;;1.04;74.75
57234;BME280;43090;52.604;13.318;2023-04-03T06:37:33;102672.06;;;1.17;75.45
57234;BME280;43090;52.604;13.318;2023-04-03T06:40:00;102672.03;;;1.29;73.57
57234;BME280;43090;52.604;13.318;2023-04-03T06:42:26;102689.59;;;1.55;74.16
57234;BME280;43090;52.604;13.318;2023-04-03T06:44:53;102686.09;;;1.42;72.45
57234;BME280;43090;52.604;13.318;2023-04-03T06:47:20;102704.53;;;1.72;71.01
57234;BME280;43090;52.604;13.318;2023-04-03T06:49:46;102678.19;;;1.44;70.12
57234;BME280;43090;52.604;13.318;2023-04-03T06:52:13;102678.16;;;1.52;71.02
57234;BME280;43090;52.604;13.318;2023-04-03T06:54:40;102695.66;;;1.85;70.87
57234;BME280;43090;52.604;13.318;2023-04-03T06:57:07;102672.78;;;1.87;68.98
57234;BME280;43090;52.604;13.318;2023-04-03T06:59:34;102699.13;;;2.06;66.70
57234;BME280;43090;52.604;13.318;2023-04-03T07:02:02;102696.59;;;1.75;67.83
57234;BME280;43090;52.604;13.318;2023-04-03T07:04:29;102682.53;;;1.66;65.29
57234;BME280;43090;52.604;13.318;2023-04-03T07:06:56;102737.84;;;2.24;64.18
57234;BME280;43090;52.604;13.318;2023-04-03T07:09:22;102731.63;;;2.29;61.66
57234;BME280;43090;52.604;13.318;2023-04-03T07:11:51;102735.13;;;2.30;61.12
57234;BME280;43090;52.604;13.318;2023-04-03T07:14:18;102710.41;;;2.42;63.79
57234;BME280;43090;52.604;13.318;2023-04-03T07:16:44;102697.31;;;2.22;61.16
57234;BME280;43090;52.604;13.318;2023-04-03T07:19:11;102714.03;;;2.22;60.87
57234;BME280;43090;52.604;13.318;2023-04-03T07:21:38;102735.22;;;2.13;59.20
57234;BME280;43090;52.604;13.318;2023-04-03T07:24:04;102710.66;;;1.89;59.73
57234;BME280;43090;52.604;13.318;2023-04-03T07:26:31;102730.63;;;2.57;59.89
57234;BME280;43090;52.604;13.318;2023-04-03T07:28:58;102721.97;;;2.24;60.19
57234;BME280;43090;52.604;13.318;2023-04-03T07:31:24;102691.09;;;2.30;58.10
57234;BME280;43090;52.604;13.318;2023-04-03T07:33:51;102727.03;;;2.64;58.26
57234;BME280;43090;52.604;13.318;2023-04-03T07:36:21;102746.50;;;2.54;56.50
57234;BME280;43090;52.604;13.318;2023-04-03T07:38:48;102729.97;;;2.04;58.04
57234;BME280;43090;52.604;13.318;2023-04-03T07:41:17;102719.38;;;2.11;58.47
57234;BME280;43090;52.604;13.318;2023-04-03T07:43:44;102744.84;;;2.36;59.03
57234;BME280;43090;52.604;13.318;2023-04-03T07:46:12;102741.41;;;2.06;58.09
57234;BME280;43090;52.604;13.318;2023-04-03T07:48:39;102745.63;;;2.50;58.90
57234;BME280;43090;52.604;13.318;2023-04-03T07:51:05;102730.69;;;2.43;59.45
57234;BME280;43090;52.604;13.318;2023-04-03T07:53:32;102732.53;;;2.24;58.46
57234;BME280;43090;52.604;13.318;2023-04-03T07:55:59;102732.50;;;2.35;57.98
57234;BME280;43090;52.604;13.318;2023-04-03T07:58:26;102742.88;;;2.67;59.68
57234;BME280;43090;52.604;13.318;2023-04-03T08:00:55;102728.78;;;2.68;58.18
57234;BME280;43090;52.604;13.318;2023-04-03T08:03:22;102739.34;;;2.74;58.99
57234;BME280;43090;52.604;13.318;2023-04-03T08:05:50;102725.44;;;2.38;55.32
57234;BME280;43090;52.604;13.318;2023-04-03T08:08:19;102736.72;;;2.66;55.80
57234;BME280;43090;52.604;13.318;2023-04-03T08:10:51;102754.34;;;2.71;55.71
57234;BME280;43090;52.604;13.318;2023-04-03T08:13:19;102733.28;;;2.52;56.04
57234;BME280;43090;52.604;13.318;2023-04-03T08:15:46;102721.91;;;2.35;56.01
57234;BME280;43090;52.604;13.318;2023-04-03T08:18:13;102712.13;;;2.50;55.97
57234;BME280;43090;52.604;13.318;2023-04-03T08:20:41;102744.59;;;2.76;55.89
57234;BME280;43090;52.604;13.318;2023-04-03T08:23:08;102757.75;;;2.88;54.54
57234;BME280;43090;52.604;13.318;2023-04-03T08:25:39;102739.94;;;3.15;54.16
57234;BME280;43090;52.604;13.318;2023-04-03T08:28:07;102741.91;;;2.85;54.25
57234;BME280;43090;52.604;13.318;2023-04-03T08:30:34;102751.44;;;3.12;52.41
57234;BME280;43090;52.604;13.318;2023-04-03T08:33:01;102722.50;;;2.83;52.12
57234;BME280;43090;52.604;13.318;2023-04-03T08:35:28;102736.50;;;2.97;52.32
57234;BME280;43090;52.604;13.318;2023-04-03T08:37:55;102724.09;;;3.07;51.87
57234;BME280;43090;52.604;13.318;2023-04-03T08:40:23;102731.38;;;2.76;52.59
57234;BME280;43090;52.604;13.318;2023-04-03T08:43:15;102755.00;;;3.04;53.38
57234;BME280;43090;52.604;13.318;2023-04-03T08:45:52;102728.84;;;2.59;53.65
57234;BME280;43090;52.604;13.318;2023-04-03T08:48:33;102719.00;;;2.81;53.82
57234;BME280;43090;52.604;13.318;2023-04-03T08:51:05;102734.72;;;3.03;55.08
57234;BME280;43090;52.604;13.318;2023-04-03T08:53:41;102731.50;;;3.67;54.28
57234;BME280;43090;52.604;13.318;2023-04-03T08:56:09;102725.25;;;3.75;50.81
57234;BME280;43090;52.604;13.318;2023-04-03T08:58:45;102731.03;;;4.11;50.54
57234;BME280;43090;52.604;13.318;2023-04-03T09:01:21;102736.72;;;4.50;51.16
57234;BME280;43090;52.604;13.318;2023-04-03T09:03:52;102746.16;;;4.70;49.09
57234;BME280;43090;52.604;13.318;2023-04-03T09:06:21;102734.38;;;4.25;47.93
57234;BME280;43090;52.604;13.318;2023-04-03T09:09:12;102737.44;;;3.91;50.06
57234;BME280;43090;52.604;13.318;2023-04-03T09:20:59;102722.19;;;3.26;49.61
57234;BME280;43090;52.604;13.318;2023-04-03T09:23:39;102709.97;;;3.07;47.39
57234;BME280;43090;52.604;13.318;2023-04-03T09:26:18;102715.66;;;3.60;48.10
57234;BME280;43090;52.604;13.318;2023-04-03T09:28:47;102716.69;;;3.49;46.79
57234;BME280;43090;52.604;13.318;2023-04-03T09:31:30;102722.69;;;3.67;47.19
57234;BME280;43090;52.604;13.318;2023-04-03T09:34:26;102730.34;;;3.93;46.61
57234;BME280;43090;52.604;13.318;2023-04-03T09:36:55;102735.31;;;4.21;47.92
57234;BME280;43090;52.604;13.318;2023-04-03T09:39:27;102745.88;;;4.24;46.65
57234;BME280;43090;52.604;13.318;2023-04-03T09:42:26;102721.38;;;4.05;46.30
57234;BME280;43090;52.604;13.318;2023-04-03T09:45:00;102727.69;;;3.93;45.08
57234;BME280;43090;52.604;13.318;2023-04-03T09:47:35;102727.50;;;4.09;44.65
57234;BME280;43090;52.604;13.318;2023-04-03T09:50:18;102712.44;;;4.12;45.45
57234;BME280;43090;52.604;13.318;2023-04-03T09:52:50;102734.41;;;3.40;44.52
57234;BME280;43090;52.604;13.318;2023-04-03T09:55:21;102725.19;;;3.79;45.98
57234;BME280;43090;52.604;13.318;2023-04-03T09:57:54;102700.25;;;3.97;45.26
57234;BME280;43090;52.604;13.318;2023-04-03T10:00:28;102686.72;;;4.22;46.85
57234;BME280;43090;52.604;13.318;2023-04-03T10:02:57;102701.88;;;4.09;46.25
57234;BME280;43090;52.604;13.318;2023-04-03T10:05:30;102720.84;;;4.47;45.42
57234;BME280;43090;52.604;13.318;2023-04-03T10:10:37;102705.03;;;4.41;44.34
57234;BME280;43090;52.604;13.318;2023-04-03T10:13:16;102707.78;;;4.30;44.64
57234;BME280;43090;52.604;13.318;2023-04-03T10:16:14;102699.16;;;4.79;44.61
57234;BME280;43090;52.604;13.318;2023-04-03T10:18:48;102711.19;;;5.02;45.09
57234;BME280;43090;52.604;13.318;2023-04-03T10:21:48;102674.38;;;4.20;43.55
57234;BME280;43090;52.604;13.318;2023-04-03T10:27:39;102680.28;;;4.39;44.21
57234;BME280;43090;52.604;13.318;2023-04-03T10:33:33;102704.66;;;4.65;46.06
57234;BME280;43090;52.604;13.318;2023-04-03T10:36:42;102701.66;;;4.89;45.09
57234;BME280;43090;52.604;13.318;2023-04-03T10:39:39;102682.56;;;4.65;45.68
57234;BME280;43090;52.604;13.318;2023-04-03T10:42:28;102658.22;;;4.94;45.98
57234;BME280;43090;52.604;13.318;2023-04-03T10:45:28;102689.56;;;4.69;44.35
57234;BME280;43090;52.604;13.318;2023-04-03T10:48:15;102685.75;;;4.87;44.44
57234;BME280;43090;52.604;13.318;2023-04-03T10:51:03;102678.38;;;5.06;44.22
57234;BME280;43090;52.604;13.318;2023-04-03T10:53:39;102662.38;;;5.09;43.06
57234;BME280;43090;52.604;13.318;2023-04-03T10:56:31;102679.19;;;4.52;44.53
57234;BME280;43090;52.604;13.318;2023-04-03T11:04:48;102640.81;;;4.75;45.73
57234;BME280;43090;52.604;13.318;2023-04-03T11:07:55;102673.00;;;5.11;44.35
57234;BME280;43090;52.604;13.318;2023-04-03T11:10:39;102631.25;;;5.19;45.22
57234;BME280;43090;52.604;13.318;2023-04-03T11:13:38;102662.94;;;5.28;44.19
57234;BME280;43090;52.604;13.318;2023-04-03T11:16:03;102629.25;;;5.30;44.61
57234;BME280;43090;52.604;13.318;2023-04-03T11:18:39;102637.91;;;4.92;45.89
57234;BME280;43090;52.604;13.318;2023-04-03T11:21:17;102656.63;;;5.34;45.17
57234;BME280;43090;52.604;13.318;2023-04-03T11:23:48;102668.75;;;4.99;46.41
57234;BME280;43090;52.604;13.318;2023-04-03T11:26:22;102634.63;;;4.76;45.37
57234;BME280;43090;52.604;13.318;2023-04-03T11:28:53;102648.94;;;5.18;45.07
57234;BME280;43090;52.604;13.318;2023-04-03T11:34:23;102630.13;;;4.81;47.58
57234;BME280;43090;52.604;13.318;2023-04-03T11:36:58;102660.22;;;5.31;45.62
57234;BME280;43090;52.604;13.318;2023-04-03T11:39:33;102637.34;;;5.24;45.17
57234;BME280;43090;52.604;13.318;2023-04-03T11:42:42;102619.13;;;4.49;45.80
57234;BME280;43090;52.604;13.318;2023-04-03T11:50:58;102640.16;;;5.15;47.26
57234;BME280;43090;52.604;13.318;2023-04-03T11:59:24;102647.06;;;5.25;45.23
57234;BME280;43090;52.604;13.318;2023-04-03T12:01:58;102658.19;;;4.97;45.27
57234;BME280;43090;52.604;13.318;2023-04-03T12:04:26;102627.28;;;4.92;44.99
57234;BME280;43090;52.604;13.318;2023-04-03T12:07:00;102604.13;;;5.00;45.84
57234;BME280;43090;52.604;13.318;2023-04-03T12:09:33;102621.25;;;4.82;45.77
57234;BME280;43090;52.604;13.318;2023-04-03T12:12:23;102628.19;;;4.92;46.04
57234;BME280;43090;52.604;13.318;2023-04-03T12:15:22;102608.88;;;4.81;46.28
57234;BME280;43090;52.604;13.318;2023-04-03T12:17:53;102638.22;;;4.72;46.70
57234;BME280;43090;52.604;13.318;2023-04-03T12:23:32;102665.50;;;5.34;47.26
57234;BME280;43090;52.604;13.318;2023-04-03T12:28:49;102654.19;;;4.70;47.57
57234;BME280;43090;52.604;13.318;2023-04-03T12:31:19;102613.44;;;4.73;47.23
57234;BME280;43090;52.604;13.318;2023-04-03T12:34:09;102650.16;;;5.00;47.93
57234;BME280;43090;52.604;13.318;2023-04-03T12:36:54;102638.88;;;4.86;47.46
57234;BME280;43090;52.604;13.318;2023-04-03T12:45:25;102642.66;;;5.24;47.74
57234;BME280;43090;52.604;13.318;2023-04-03T12:47:54;102606.31;;;5.26;47.11
57234;BME280;43090;52.604;13.318;2023-04-03T12:50:27;102624.69;;;5.82;45.94
57234;BME280;43090;52.604;13.318;2023-04-03T12:53:04;102582.09;;;4.96;47.30
57234;BME280;43090;52.604;13.318;2023-04-03T12:55:31;102589.50;;;4.76;47.56
57234;BME280;43090;52.604;13.318;2023-04-03T12:58:16;102606.78;;;5.02;46.65
57234;BME280;43090;52.604;13.318;2023-04-03T13:00:43;102598.09;;;4.90;45.27
57234;BME280;43090;52.604;13.318;2023-04-03T13:03:22;102630.66;;;5.00;46.15
57234;BME280;43090;52.604;13.318;2023-04-03T13:05:50;102624.66;;;4.90;46.99
57234;BME280;43090;52.604;13.318;2023-04-03T13:08:18;102633.53;;;4.88;46.92
57234;BME280;43090;52.604;13.318;2023-04-03T13:10:53;102593.19;;;4.69;49.87
57234;BME280;43090;52.604;13.318;2023-04-03T13:13:23;102591.81;;;4.43;47.69
57234;BME280;43090;52.604;13.318;2023-04-03T13:15:50;102595.63;;;4.81;48.23
57234;BME280;43090;52.604;13.318;2023-04-03T13:18:33;102618.16;;;5.08;47.59
57234;BME280;43090;52.604;13.318;2023-04-03T13:21:18;102606.28;;;4.78;46.83
57234;BME280;43090;52.604;13.318;2023-04-03T13:23:49;102625.19;;;5.09;46.94
57234;BME280;43090;52.604;13.318;2023-04-03T13:26:25;102574.78;;;4.58;47.13
57234;BME280;43090;52.604;13.318;2023-04-03T13:29:29;102587.41;;;4.42;46.99
57234;BME280;43090;52.604;13.318;2023-04-03T13:31:58;102609.41;;;4.48;47.78
57234;BME280;43090;52.604;13.318;2023-04-03T13:34:29;102622.53;;;4.56;48.53
57234;BME280;43090;52.604;13.318;2023-04-03T13:37:02;102618.63;;;4.80;48.34
57234;BME280;43090;52.604;13.318;2023-04-03T13:39:36;102605.44;;;4.76;49.12
57234;BME280;43090;52.604;13.318;2023-04-03T13:42:28;102559.19;;;4.38;48.47
57234;BME280;43090;52.604;13.318;2023-04-03T13:45:16;102622.69;;;4.47;48.37
57234;BME280;43090;52.604;13.318;2023-04-03T13:47:44;102606.78;;;4.47;49.29
57234;BME280;43090;52.604;13.318;2023-04-03T13:50:13;102616.72;;;4.32;47.75
57234;BME280;43090;52.604;13.318;2023-04-03T13:52:52;102617.88;;;4.74;49.24
57234;BME280;43090;52.604;13.318;2023-04-03T13:55:24;102611.38;;;4.36;48.02
57234;BME280;43090;52.604;13.318;2023-04-03T13:57:56;102620.16;;;4.41;49.93
57234;BME280;43090;52.604;13.318;2023-04-03T14:00:37;102604.09;;;4.50;49.33
57234;BME280;43090;52.604;13.318;2023-04-03T14:03:25;102611.56;;;4.79;49.52
57234;BME280;43090;52.604;13.318;2023-04-03T14:05:53;102555.97;;;4.72;48.93
57234;BME280;43090;52.604;13.318;2023-04-03T14:08:19;102573.53;;;4.79;49.32
57234;BME280;43090;52.604;13.318;2023-04-03T14:10:57;102603.50;;;4.84;48.46
57234;BME280;43090;52.604;13.318;2023-04-03T14:13:24;102617.34;;;4.48;50.09
57234;BME280;43090;52.604;13.318;2023-04-03T14:15:51;102593.38;;;4.58;49.95
57234;BME280;43090;52.604;13.318;2023-04-03T14:18:19;102584.50;;;4.57;50.69